Time;durP1;ratioP1;P1;durP2;ratioP2;P2;SDS_P1;SDS_P2;PMS_P1;PMS_P2;Temp;Humidity;BMP_temperature;BMP_pressure;BME280_temperature;BME280_humidity;BME280_pressure;Samples;Min_cycle;Max_cycle;Signal;HPM_P1;HPM_P2
2022/11/30 00:00:50;;;;;;;29.00;18.23;;;8.90;42.00;;;;;;5052147;28;20295;-50
2022/11/30 00:03:16;;;;;;;27.20;18.03;;;8.90;42.00;;;;;;5051796;28;20706;-50
2022/11/30 00:05:41;;;;;;;31.00;19.13;;;8.90;42.10;;;;;;5052017;28;20588;-50
2022/11/30 00:08:07;;;;;;;30.67;17.90;;;8.90;42.10;;;;;;5051369;28;20645;-49
2022/11/30 00:10:33;;;;;;;28.27;19.60;;;8.90;42.00;;;;;;5051974;28;20264;-49
2022/11/30 00:12:59;;;;;;;29.58;18.05;;;8.90;42.10;;;;;;5051651;28;20171;-50
2022/11/30 00:15:25;;;;;;;38.47;19.40;;;9.00;41.90;;;;;;5051745;28;20624;-49
2022/11/30 00:17:56;;;;;;;30.93;18.17;;;9.00;41.90;;;;;;5051430;28;20709;-49
2022/11/30 00:20:22;;;;;;;27.70;17.80;;;9.00;41.80;;;;;;5051655;28;20443;-50
2022/11/30 00:22:48;;;;;;;29.43;18.10;;;9.00;41.90;;;;;;5051873;28;20199;-49
2022/11/30 00:25:13;;;;;;;31.90;18.00;;;9.00;41.70;;;;;;5051743;28;20450;-50
2022/11/30 00:27:39;;;;;;;25.03;16.57;;;9.10;41.70;;;;;;5051305;28;20413;-50
2022/11/30 00:30:05;;;;;;;26.20;17.37;;;9.10;41.70;;;;;;5051521;28;20199;-49
2022/11/30 00:32:31;;;;;;;28.15;16.90;;;9.10;41.80;;;;;;5051506;28;20260;-49
2022/11/30 00:34:57;;;;;;;27.33;18.57;;;9.10;41.70;;;;;;5051381;28;20280;-51
2022/11/30 00:37:23;;;;;;;25.87;17.10;;;9.10;41.70;;;;;;5051349;28;20512;-49
2022/11/30 00:39:48;;;;;;;32.30;19.53;;;9.10;41.70;;;;;;5051221;28;20216;-51
2022/11/30 00:42:14;;;;;;;30.40;17.53;;;9.20;41.60;;;;;;5051577;28;20235;-50
2022/11/30 00:44:40;;;;;;;43.73;20.23;;;9.10;41.60;;;;;;5051416;28;20865;-49
2022/11/30 00:47:05;;;;;;;28.93;17.77;;;9.20;41.30;;;;;;5051657;28;20171;-50
2022/11/30 00:49:32;;;;;;;33.60;18.60;;;9.20;41.30;;;;;;5051020;28;20189;-49
2022/11/30 00:51:59;;;;;;;28.33;17.15;;;9.20;41.30;;;;;;5051332;28;20296;-50
2022/11/30 00:54:24;;;;;;;26.90;17.95;;;9.20;41.50;;;;;;5054513;28;20333;-51
2022/11/30 00:56:50;;;;;;;29.50;17.77;;;9.20;41.50;;;;;;5055054;28;20258;-50
2022/11/30 00:59:16;;;;;;;28.43;17.23;;;9.20;41.40;;;;;;5054665;28;20181;-50
2022/11/30 01:01:42;;;;;;;29.30;17.60;;;9.20;41.60;;;;;;5054845;28;20417;-50
2022/11/30 01:04:07;;;;;;;32.23;20.20;;;9.10;41.20;;;;;;5054660;28;20198;-49
2022/11/30 01:06:33;;;;;;;31.80;19.07;;;9.10;41.60;;;;;;5054746;28;20174;-49
2022/11/30 01:08:59;;;;;;;30.20;17.60;;;9.10;41.50;;;;;;5054640;28;20571;-49
2022/11/30 01:11:29;;;;;;;27.00;20.23;;;9.20;41.50;;;;;;5054820;28;20181;-50
2022/11/30 01:13:56;;;;;;;32.75;19.15;;;9.20;41.40;;;;;;5054511;28;20817;-49
2022/11/30 01:16:25;;;;;;;25.00;16.80;;;9.20;41.20;;;;;;5054831;28;20559;-48
2022/11/30 01:18:51;;;;;;;32.75;18.05;;;9.20;41.20;;;;;;5054238;28;20711;-49
2022/11/30 01:21:19;;;;;;;25.10;17.53;;;9.20;41.40;;;;;;5054777;28;20185;-50
2022/11/30 01:23:45;;;;;;;23.35;16.10;;;9.20;41.10;;;;;;5054302;28;20195;-50
2022/11/30 01:26:11;;;;;;;30.65;18.30;;;9.20;41.10;;;;;;5054674;28;20177;-49
2022/11/30 01:28:39;;;;;;;26.02;16.63;;;9.20;40.90;;;;;;5054111;28;20200;-50
2022/11/30 01:31:08;;;;;;;29.67;17.77;;;9.10;41.30;;;;;;5054383;28;20655;-49
2022/11/30 01:33:35;;;;;;;29.52;17.88;;;9.10;41.20;;;;;;5054318;28;20572;-48
2022/11/30 01:36:06;;;;;;;27.38;16.10;;;9.10;41.50;;;;;;5054180;28;20307;-49
2022/11/30 01:38:35;;;;;;;27.17;17.27;;;9.10;41.50;;;;;;5053835;28;20182;-50
2022/11/30 01:41:02;;;;;;;26.77;16.70;;;9.10;41.60;;;;;;5054101;28;20191;-50
2022/11/30 01:44:05;;;;;;;24.58;16.20;;;9.10;41.60;;;;;;5053970;28;20807;-49
2022/11/30 01:46:55;;;;;;;24.70;16.50;;;9.20;41.30;;;;;;5047467;28;20264;-49
2022/11/30 01:49:38;;;;;;;24.45;16.55;;;9.20;41.10;;;;;;5053899;28;20204;-50
2022/11/30 01:52:23;;;;;;;26.23;16.13;;;9.10;41.30;;;;;;5053873;28;20175;-51
2022/11/30 01:55:02;;;;;;;24.40;16.80;;;9.10;41.20;;;;;;5053904;28;20226;-51
2022/11/30 01:57:35;;;;;;;26.15;16.88;;;9.00;41.00;;;;;;5054069;28;20562;-50
2022/11/30 02:00:08;;;;;;;23.95;17.85;;;9.00;41.20;;;;;;5054019;28;20186;-48
2022/11/30 02:02:57;;;;;;;29.25;16.88;;;9.00;41.30;;;;;;5053631;28;20176;-51
2022/11/30 02:05:24;;;;;;;26.95;17.98;;;9.00;41.30;;;;;;5053390;28;20176;-49
2022/11/30 02:07:50;;;;;;;22.70;14.60;;;9.00;41.50;;;;;;5053433;28;20179;-51
2022/11/30 02:10:22;;;;;;;25.02;17.33;;;9.00;41.10;;;;;;5053451;28;20552;-50
2022/11/30 02:13:12;;;;;;;24.27;16.05;;;9.00;41.20;;;;;;5053484;28;20177;-50
2022/11/30 02:16:10;;;;;;;25.92;17.42;;;9.00;41.40;;;;;;5053688;28;20187;-49
2022/11/30 02:18:54;;;;;;;26.00;17.00;;;9.00;41.30;;;;;;5053158;28;20172;-49
2022/11/30 02:21:40;;;;;;;23.40;16.35;;;9.00;41.20;;;;;;5053109;28;20500;-49
2022/11/30 02:24:24;;;;;;;25.48;17.25;;;9.00;41.20;;;;;;5053220;28;20192;-50
2022/11/30 02:27:10;;;;;;;27.27;17.83;;;8.90;41.40;;;;;;5053238;28;20614;-50
2022/11/30 02:29:38;;;;;;;22.35;15.45;;;9.00;41.30;;;;;;5052796;28;20195;-50
2022/11/30 02:32:09;;;;;;;31.10;17.88;;;8.90;40.80;;;;;;5053295;28;20189;-49
2022/11/30 02:34:37;;;;;;;25.98;16.55;;;8.90;41.30;;;;;;5053114;28;20209;-49
2022/11/30 02:37:05;;;;;;;29.40;17.25;;;8.90;41.30;;;;;;5053264;28;20184;-50
2022/11/30 02:39:31;;;;;;;29.92;18.75;;;8.90;41.40;;;;;;5052816;28;20190;-49
2022/11/30 02:41:57;;;;;;;29.60;17.97;;;8.90;41.40;;;;;;5053213;28;20357;-50
2022/11/30 02:44:23;;;;;;;25.33;16.90;;;8.90;41.30;;;;;;5052947;28;20522;-50
2022/11/30 02:47:36;;;;;;;23.52;17.40;;;8.90;41.30;;;;;;5052875;28;20180;-49
2022/11/30 02:50:11;;;;;;;27.27;15.93;;;8.80;40.80;;;;;;5010647;28;20219;-50
2022/11/30 02:52:38;;;;;;;27.10;17.20;;;8.80;41.10;;;;;;5046721;28;20187;-49
2022/11/30 02:55:10;;;;;;;28.55;16.02;;;8.80;41.20;;;;;;5052628;28;20193;-49
2022/11/30 02:57:36;;;;;;;28.08;15.70;;;8.70;41.30;;;;;;5052503;28;20174;-50
2022/11/30 03:00:05;;;;;;;23.77;15.57;;;8.80;41.10;;;;;;5052499;28;20174;-50
2022/11/30 03:02:32;;;;;;;29.75;15.73;;;8.80;41.20;;;;;;5052560;28;20518;-50
2022/11/30 03:04:57;;;;;;;24.17;16.58;;;8.70;41.30;;;;;;5052677;28;20270;-49
2022/11/30 03:07:23;;;;;;;25.87;18.53;;;8.80;41.30;;;;;;5052402;28;20699;-50
2022/11/30 03:09:49;;;;;;;27.23;17.53;;;8.70;41.30;;;;;;5052232;28;20193;-50
2022/11/30 03:12:15;;;;;;;28.60;16.40;;;8.80;41.30;;;;;;5052415;28;20839;-50
2022/11/30 03:14:41;;;;;;;28.47;17.03;;;9.20;41.30;;;;;;5052169;28;20443;-50
2022/11/30 03:17:06;;;;;;;24.90;17.40;;;8.80;41.10;;;;;;5051663;28;20541;-50
2022/11/30 03:19:33;;;;;;;28.23;17.17;;;8.70;41.20;;;;;;5052239;28;20248;-50
2022/11/30 03:21:59;;;;;;;28.00;19.90;;;8.80;41.20;;;;;;5052178;28;20434;-49
2022/11/30 03:24:25;;;;;;;28.55;16.60;;;8.70;40.90;;;;;;5052043;28;20680;-50
2022/11/30 03:26:51;;;;;;;35.80;16.17;;;8.70;41.80;;;;;;5052509;28;20196;-50
2022/11/30 03:29:17;;;;;;;26.08;18.15;;;8.60;41.10;;;;;;5052036;28;20455;-49
2022/11/30 03:31:43;;;;;;;26.25;15.75;;;8.70;41.20;;;;;;5052298;28;20234;-49
2022/11/30 03:34:09;;;;;;;21.48;14.82;;;8.60;41.20;;;;;;5051874;28;20280;-50
2022/11/30 03:36:35;;;;;;;23.77;15.97;;;8.60;41.20;;;;;;5052210;28;20268;-49
2022/11/30 03:39:01;;;;;;;25.52;17.02;;;8.60;41.20;;;;;;5051845;28;20211;-49
2022/11/30 03:41:27;;;;;;;32.70;18.53;;;8.60;41.10;;;;;;5052241;28;20181;-50
2022/11/30 03:43:53;;;;;;;27.43;16.03;;;8.50;41.30;;;;;;5052010;28;20438;-50
2022/11/30 03:46:18;;;;;;;29.57;17.53;;;8.60;41.30;;;;;;5051871;28;20404;-50
2022/11/30 03:48:44;;;;;;;27.13;17.23;;;8.50;41.20;;;;;;5051594;28;20213;-49
2022/11/30 03:51:11;;;;;;;26.40;16.37;;;8.50;41.20;;;;;;5051872;28;20199;-51
2022/11/30 03:53:37;;;;;;;26.98;18.25;;;8.50;41.10;;;;;;5051727;28;20420;-49
2022/11/30 03:56:06;;;;;;;30.15;17.75;;;8.50;41.30;;;;;;5051981;28;20173;-50
2022/11/30 03:58:32;;;;;;;27.25;15.88;;;8.40;41.30;;;;;;5051905;28;20173;-49
2022/11/30 04:01:09;;;;;;;29.95;19.23;;;8.40;41.30;;;;;;5051822;28;20180;-49
2022/11/30 04:03:36;;;;;;;26.13;16.60;;;8.40;41.40;;;;;;5052060;28;20279;-49
2022/11/30 04:06:03;;;;;;;29.05;18.02;;;8.40;41.30;;;;;;5051992;28;20217;-50
2022/11/30 04:08:29;;;;;;;25.73;15.27;;;8.40;41.30;;;;;;5051464;28;20864;-49
2022/11/30 04:10:57;;;;;;;25.80;16.63;;;8.40;41.40;;;;;;5051819;28;20212;-50
2022/11/30 04:13:23;;;;;;;25.98;16.90;;;8.40;41.40;;;;;;5051482;28;20574;-49
2022/11/30 04:15:50;;;;;;;25.08;16.40;;;8.40;41.40;;;;;;5051666;28;20177;-49
2022/11/30 04:18:18;;;;;;;30.05;18.65;;;8.40;42.20;;;;;;5051705;28;20548;-49
2022/11/30 04:20:44;;;;;;;33.05;19.27;;;8.30;41.50;;;;;;5051863;28;20182;-51
2022/11/30 04:23:10;;;;;;;25.42;15.65;;;8.30;41.50;;;;;;5051601;28;20197;-50
2022/11/30 04:25:40;;;;;;;33.75;18.58;;;8.30;41.50;;;;;;5051580;28;20181;-49
2022/11/30 04:28:07;;;;;;;30.50;17.55;;;8.30;41.50;;;;;;5054180;28;20166;-50
2022/11/30 04:30:34;;;;;;;36.30;19.77;;;8.20;41.50;;;;;;5055214;28;20205;-50
2022/11/30 04:33:00;;;;;;;29.55;18.83;;;8.20;41.60;;;;;;5055388;28;20176;-49
2022/11/30 04:35:26;;;;;;;32.50;19.20;;;8.20;41.60;;;;;;5055478;28;20166;-49
2022/11/30 04:37:51;;;;;;;29.73;19.77;;;8.10;41.80;;;;;;5055319;28;20997;-50
2022/11/30 04:40:17;;;;;;;28.20;18.90;;;8.10;41.90;;;;;;5055344;28;20174;-50
2022/11/30 04:42:43;;;;;;;30.50;18.80;;;8.00;41.90;;;;;;5055229;28;20305;-50
2022/11/30 04:45:09;;;;;;;31.20;17.93;;;8.00;42.00;;;;;;5055216;28;20542;-49
2022/11/30 04:47:35;;;;;;;32.05;21.30;;;8.00;42.20;;;;;;5055241;28;20185;-50
2022/11/30 04:50:01;;;;;;;31.35;20.13;;;8.00;42.30;;;;;;5055155;28;20223;-50
2022/11/30 04:52:27;;;;;;;29.90;18.13;;;7.90;42.30;;;;;;5055012;28;20498;-50
2022/11/30 04:54:53;;;;;;;31.27;19.13;;;7.90;42.30;;;;;;5054960;28;20423;-50
2022/11/30 04:57:19;;;;;;;30.40;20.83;;;7.90;42.40;;;;;;5054932;28;20265;-50
2022/11/30 04:59:44;;;;;;;27.37;17.10;;;7.90;42.60;;;;;;5054605;28;20419;-50
2022/11/30 05:02:10;;;;;;;30.20;18.20;;;7.80;42.60;;;;;;5054818;28;20902;-50
2022/11/30 05:04:36;;;;;;;32.27;17.97;;;7.80;42.60;;;;;;5054754;28;20266;-50
2022/11/30 05:07:02;;;;;;;29.30;19.73;;;7.90;42.70;;;;;;5055023;28;20231;-50
2022/11/30 05:09:27;;;;;;;28.40;19.90;;;7.90;42.60;;;;;;5054428;28;20265;-49
2022/11/30 05:11:53;;;;;;;31.77;19.93;;;7.90;42.70;;;;;;5054681;28;20416;-49
2022/11/30 05:24:25;;;;;;;35.45;19.42;;;7.80;42.60;;;;;;5054058;28;20266;-49
2022/11/30 05:26:50;;;;;;;30.43;19.30;;;7.80;42.70;;;;;;5054498;28;20637;-49
2022/11/30 05:29:16;;;;;;;33.87;20.23;;;7.80;42.50;;;;;;5054271;28;20204;-50
2022/11/30 05:31:42;;;;;;;32.00;18.30;;;7.80;42.60;;;;;;5054141;28;20526;-49
2022/11/30 05:34:08;;;;;;;30.27;18.30;;;7.80;42.40;;;;;;5054080;28;20193;-49
2022/11/30 05:36:33;;;;;;;29.67;18.23;;;7.90;42.40;;;;;;5054367;28;20173;-50
2022/11/30 05:38:59;;;;;;;36.20;18.90;;;7.80;42.30;;;;;;5053093;28;20557;-50
2022/11/30 05:41:25;;;;;;;30.13;17.87;;;7.80;42.30;;;;;;5054190;28;20209;-50
2022/11/30 05:43:50;;;;;;;34.20;19.40;;;7.80;42.20;;;;;;5053944;28;20185;-51
2022/11/30 05:46:16;;;;;;;29.33;19.63;;;7.80;42.10;;;;;;5053837;28;20663;-50
2022/11/30 05:48:42;;;;;;;32.93;18.67;;;7.80;42.10;;;;;;5053832;28;20254;-50
2022/11/30 05:51:09;;;;;;;32.93;19.70;;;7.80;42.00;;;;;;5053831;28;20284;-50
2022/11/30 05:53:35;;;;;;;26.60;18.67;;;7.80;42.00;;;;;;5053742;28;20195;-50
2022/11/30 05:56:06;;;;;;;26.60;18.50;;;7.80;42.00;;;;;;5053737;28;20264;-50
2022/11/30 05:58:32;;;;;;;28.75;18.33;;;7.80;41.90;;;;;;5053516;28;20470;-50
2022/11/30 06:00:58;;;;;;;34.42;20.80;;;7.80;41.90;;;;;;5053521;28;20170;-49
2022/11/30 06:03:24;;;;;;;28.80;17.50;;;7.70;41.90;;;;;;5053846;28;20530;-49
2022/11/30 06:05:50;;;;;;;28.33;17.27;;;7.70;41.90;;;;;;5053875;28;20408;-49
2022/11/30 06:08:17;;;;;;;27.60;17.23;;;7.70;42.00;;;;;;5053177;28;20177;-50
2022/11/30 06:10:43;;;;;;;25.42;16.05;;;7.60;41.90;;;;;;5053529;28;20209;-49
2022/11/30 06:13:09;;;;;;;26.57;15.83;;;7.70;42.00;;;;;;5053286;28;20248;-50
2022/11/30 06:15:39;;;;;;;29.33;17.37;;;7.70;42.00;;;;;;5053219;28;20404;-50
2022/11/30 06:18:05;;;;;;;28.10;17.50;;;7.70;42.10;;;;;;5053100;28;20411;-51
2022/11/30 06:20:32;;;;;;;30.38;16.35;;;7.70;42.00;;;;;;5053323;28;20173;-50
2022/11/30 06:22:57;;;;;;;27.73;17.02;;;7.70;42.00;;;;;;5053393;28;20182;-50
2022/11/30 06:25:24;;;;;;;24.57;16.47;;;7.70;42.00;;;;;;5053475;28;20177;-49
2022/11/30 06:27:50;;;;;;;27.77;17.73;;;7.60;42.00;;;;;;5052947;28;20502;-51
2022/11/30 06:30:16;;;;;;;26.45;16.00;;;7.60;42.00;;;;;;5052939;28;20281;-50
2022/11/30 06:32:50;;;;;;;29.10;17.83;;;7.60;42.10;;;;;;5053077;28;20606;-50
2022/11/30 06:35:17;;;;;;;29.92;17.25;;;7.60;42.10;;;;;;5053126;28;20197;-50
2022/11/30 06:37:43;;;;;;;25.55;15.52;;;7.50;42.20;;;;;;5052794;28;20688;-50
2022/11/30 06:40:10;;;;;;;31.50;20.08;;;7.50;42.10;;;;;;5053014;28;20269;-50
2022/11/30 06:42:37;;;;;;;28.02;17.48;;;7.50;42.20;;;;;;5052990;28;20173;-50
2022/11/30 06:45:04;;;;;;;33.72;19.15;;;7.50;42.30;;;;;;5052816;28;20205;-50
2022/11/30 06:47:30;;;;;;;23.60;16.45;;;7.50;42.30;;;;;;5052967;28;20181;-50
2022/11/30 06:49:56;;;;;;;28.08;17.50;;;7.40;42.30;;;;;;5052819;28;20197;-50
2022/11/30 06:52:22;;;;;;;21.53;15.90;;;7.40;42.30;;;;;;5052690;28;20173;-50
2022/11/30 06:54:48;;;;;;;24.23;17.17;;;7.40;42.40;;;;;;5052670;28;20446;-50
2022/11/30 06:57:13;;;;;;;27.20;16.83;;;7.40;42.50;;;;;;5052468;28;20419;-49
2022/11/30 06:59:42;;;;;;;25.30;16.63;;;7.50;42.50;;;;;;5052567;28;20181;-49
2022/11/30 07:02:12;;;;;;;25.00;16.52;;;7.40;42.30;;;;;;5052808;28;20218;-50
2022/11/30 07:04:38;;;;;;;23.05;14.70;;;7.40;42.40;;;;;;5052569;28;20231;-50
2022/11/30 07:07:06;;;;;;;32.20;18.50;;;7.40;42.40;;;;;;5052492;28;20572;-50
2022/11/30 07:09:34;;;;;;;47.75;15.68;;;7.40;42.40;;;;;;5052047;28;20451;-50
2022/11/30 07:12:00;;;;;;;24.45;15.18;;;7.50;42.50;;;;;;5052616;28;20256;-50
2022/11/30 07:14:26;;;;;;;28.63;15.73;;;7.50;42.30;;;;;;5052150;28;20231;-48
2022/11/30 07:16:52;;;;;;;26.05;17.92;;;7.50;42.30;;;;;;5052360;28;20265;-49
2022/11/30 07:19:18;;;;;;;29.70;17.13;;;7.50;42.30;;;;;;5052045;28;20252;-50
2022/11/30 07:21:44;;;;;;;24.70;17.27;;;7.40;42.20;;;;;;5052245;28;20407;-49
2022/11/30 07:27:02;;;;;;;29.70;19.58;;;7.40;42.50;;;;;;5052495;28;20355;-50
2022/11/30 07:29:29;;;;;;;30.55;17.83;;;7.50;42.50;;;;;;5051876;28;20600;-49
2022/11/30 07:31:55;;;;;;;29.13;19.38;;;7.50;42.40;;;;;;5052327;28;20169;-48
2022/11/30 07:34:21;;;;;;;28.50;16.77;;;7.60;42.40;;;;;;5051978;28;20566;-49
2022/11/30 07:36:47;;;;;;;25.45;15.95;;;7.60;42.30;;;;;;5051919;28;20396;-49
2022/11/30 07:39:14;;;;;;;28.52;16.80;;;7.70;42.20;;;;;;5051736;28;20186;-49
2022/11/30 07:41:40;;;;;;;24.00;15.95;;;7.70;42.20;;;;;;5051829;28;20177;-49
2022/11/30 07:44:07;;;;;;;19.50;14.98;;;7.70;42.20;;;;;;5052181;28;20197;-50
2022/11/30 07:46:34;;;;;;;25.48;15.93;;;7.70;42.30;;;;;;5052022;28;20177;-49
2022/11/30 07:49:02;;;;;;;26.67;16.75;;;7.80;42.00;;;;;;5051612;28;20680;-50
2022/11/30 07:51:28;;;;;;;24.65;15.25;;;7.80;41.90;;;;;;5051831;28;20189;-50
2022/11/30 07:53:58;;;;;;;27.07;15.30;;;7.90;42.00;;;;;;5051968;28;20770;-49
2022/11/30 07:56:25;;;;;;;24.40;16.20;;;7.90;41.90;;;;;;5051688;28;20459;-49
2022/11/30 07:58:54;;;;;;;25.35;14.93;;;7.90;42.10;;;;;;5051675;28;20185;-50
2022/11/30 08:01:22;;;;;;;30.83;15.00;;;8.00;42.00;;;;;;5051772;28;20165;-50
2022/11/30 08:03:50;;;;;;;25.50;15.75;;;8.10;41.50;;;;;;5055834;28;20548;-50
2022/11/30 08:06:20;;;;;;;24.15;14.82;;;8.10;41.60;;;;;;5056004;28;20177;-48
2022/11/30 08:08:48;;;;;;;25.50;16.48;;;8.20;41.40;;;;;;5055617;28;20209;-50
2022/11/30 08:11:16;;;;;;;24.17;14.65;;;8.30;41.30;;;;;;5054392;28;20255;-50
2022/11/30 08:13:42;;;;;;;25.40;16.50;;;8.40;40.90;;;;;;5055600;28;20208;-48
2022/11/30 08:16:19;;;;;;;29.98;15.75;;;8.40;40.50;;;;;;5055643;28;20162;-50
2022/11/30 08:18:46;;;;;;;24.27;15.15;;;8.50;40.90;;;;;;5055379;28;20170;-50
2022/11/30 08:21:14;;;;;;;27.30;16.67;;;8.50;40.50;;;;;;5055536;28;20268;-50
2022/11/30 08:23:42;;;;;;;27.75;16.95;;;8.60;40.70;;;;;;5055455;28;20670;-49
2022/11/30 08:26:17;;;;;;;26.75;15.60;;;8.70;40.80;;;;;;5055838;28;20183;-49
2022/11/30 08:28:44;;;;;;;22.15;15.82;;;8.80;40.10;;;;;;5055160;28;20563;-50
2022/11/30 08:31:12;;;;;;;22.67;15.65;;;8.90;40.10;;;;;;5055413;28;20497;-50
2022/11/30 08:33:39;;;;;;;27.73;16.05;;;9.10;39.50;;;;;;5055217;28;20205;-49
2022/11/30 08:36:13;;;;;;;20.80;13.32;;;9.40;39.80;;;;;;5055498;28;20199;-50
2022/11/30 08:38:40;;;;;;;20.30;14.98;;;9.50;38.70;;;;;;5055082;28;20624;-49
2022/11/30 08:41:07;;;;;;;24.90;15.57;;;9.50;38.80;;;;;;5055508;28;20173;-50
2022/11/30 08:43:33;;;;;;;23.95;15.57;;;9.60;38.50;;;;;;5055312;28;20221;-48
2022/11/30 08:46:00;;;;;;;25.83;15.87;;;9.80;38.30;;;;;;5055125;28;20208;-50
2022/11/30 08:48:26;;;;;;;26.27;16.40;;;10.20;37.90;;;;;;5054701;28;20185;-51
2022/11/30 08:50:52;;;;;;;24.27;16.00;;;10.50;36.90;;;;;;5055352;28;20177;-49
2022/11/30 08:53:18;;;;;;;23.27;15.27;;;11.00;36.10;;;;;;5055233;28;20224;-49
2022/11/30 08:55:53;;;;;;;23.17;14.10;;;11.40;35.50;;;;;;5055019;28;20657;-50
2022/11/30 08:58:19;;;;;;;21.02;15.15;;;11.90;34.50;;;;;;5054667;28;20168;-50
2022/11/30 09:00:44;;;;;;;21.90;15.23;;;12.10;34.50;;;;;;5054778;28;20649;-50
2022/11/30 09:03:10;;;;;;;25.07;15.27;;;12.30;34.20;;;;;;5055022;28;20197;-50
2022/11/30 09:05:36;;;;;;;25.80;16.30;;;12.40;33.90;;;;;;5055036;28;20193;-50
2022/11/30 09:08:01;;;;;;;21.13;14.47;;;12.40;33.50;;;;;;5054420;28;20656;-50
2022/11/30 09:10:27;;;;;;;20.23;15.63;;;12.40;32.70;;;;;;5054492;28;20246;-50
2022/11/30 09:12:53;;;;;;;23.03;16.50;;;12.30;33.10;;;;;;5053940;28;20529;-50
2022/11/30 09:15:18;;;;;;;25.80;15.00;;;12.10;32.80;;;;;;5053814;28;20188;-51
2022/11/30 09:17:44;;;;;;;23.90;15.00;;;11.90;33.50;;;;;;5054696;28;20605;-50
2022/11/30 09:20:10;;;;;;;21.80;13.57;;;11.80;33.70;;;;;;5054439;28;20239;-50
2022/11/30 09:22:36;;;;;;;23.02;13.70;;;11.60;34.40;;;;;;5054495;28;20212;-50
2022/11/30 09:25:02;;;;;;;27.53;16.10;;;11.40;34.80;;;;;;5054338;28;20267;-50
2022/11/30 09:27:31;;;;;;;26.93;15.67;;;11.40;35.00;;;;;;5054407;28;20180;-50
2022/11/30 09:29:57;;;;;;;22.88;14.75;;;11.30;34.70;;;;;;5054089;28;20443;-50
2022/11/30 09:32:22;;;;;;;26.00;15.53;;;11.20;34.00;;;;;;5054375;28;20606;-50
2022/11/30 09:34:48;;;;;;;27.70;16.33;;;11.20;34.80;;;;;;5054451;28;20192;-51
2022/11/30 09:37:14;;;;;;;24.90;17.07;;;11.60;34.70;;;;;;5054542;28;20981;-51
2022/11/30 09:39:40;;;;;;;26.13;17.20;;;12.00;33.70;;;;;;5053818;28;20589;-50
2022/11/30 09:42:11;;;;;;;24.60;14.60;;;12.40;33.80;;;;;;5054248;28;20185;-50
2022/11/30 09:44:58;;;;;;;28.58;17.60;;;12.70;33.00;;;;;;5054136;28;20193;-50
2022/11/30 09:47:45;;;;;;;23.63;16.00;;;12.90;33.30;;;;;;5054053;28;20237;-50
2022/11/30 09:50:19;;;;;;;26.48;16.98;;;12.80;33.00;;;;;;5053762;28;20193;-51
2022/11/30 09:52:51;;;;;;;21.70;14.27;;;12.70;32.80;;;;;;5054210;28;20173;-50
2022/11/30 09:55:29;;;;;;;27.73;17.25;;;12.90;32.20;;;;;;5053864;28;20625;-51
2022/11/30 09:58:00;;;;;;;26.02;16.83;;;13.50;31.70;;;;;;5053611;28;20235;-51
2022/11/30 10:00:26;;;;;;;23.70;16.15;;;14.00;29.90;;;;;;5053762;28;20184;-50
2022/11/30 10:02:56;;;;;;;26.15;17.35;;;14.20;29.70;;;;;;5053868;28;20188;-50
2022/11/30 10:05:26;;;;;;;22.52;15.63;;;14.10;30.30;;;;;;5053559;28;20173;-51
2022/11/30 10:08:25;;;;;;;22.50;15.10;;;14.10;30.10;;;;;;5053358;28;20540;-50
2022/11/30 10:11:14;;;;;;;21.20;15.70;;;13.80;30.50;;;;;;5053693;28;20172;-51
2022/11/30 10:14:01;;;;;;;20.42;15.40;;;13.70;31.20;;;;;;5047731;28;20715;-50
2022/11/30 10:16:39;;;;;;;21.92;15.82;;;13.70;30.90;;;;;;5053448;28;20563;-50
2022/11/30 10:19:47;;;;;;;23.13;16.00;;;13.60;30.90;;;;;;5053195;28;20640;-51
2022/11/30 10:22:35;;;;;;;28.42;15.85;;;13.40;31.00;;;;;;5053245;28;20186;-50
2022/11/30 10:25:15;;;;;;;23.23;16.75;;;13.60;31.30;;;;;;5052838;28;20225;-51
2022/11/30 10:27:53;;;;;;;20.95;14.60;;;13.40;31.00;;;;;;5053019;28;20252;-51
2022/11/30 10:30:24;;;;;;;22.10;15.27;;;13.40;31.80;;;;;;5053042;28;20215;-50
2022/11/30 10:32:54;;;;;;;25.63;16.63;;;13.50;31.60;;;;;;5052975;28;20585;-51
2022/11/30 10:35:34;;;;;;;26.15;16.05;;;13.50;31.40;;;;;;5053414;28;20168;-51
2022/11/30 10:38:10;;;;;;;26.50;17.27;;;13.40;31.10;;;;;;5052808;28;20168;-50
2022/11/30 10:40:46;;;;;;;23.55;16.38;;;13.70;31.60;;;;;;5052997;28;20605;-50
2022/11/30 10:43:18;;;;;;;23.50;15.35;;;13.70;30.90;;;;;;5052902;28;20275;-50
2022/11/30 10:45:47;;;;;;;24.50;16.30;;;13.50;31.60;;;;;;5052924;28;20173;-51
2022/11/30 10:48:23;;;;;;;23.45;15.88;;;13.60;32.00;;;;;;5052885;28;20235;-51
2022/11/30 10:50:49;;;;;;;23.15;14.77;;;13.90;31.70;;;;;;5052698;28;20660;-51
2022/11/30 10:53:15;;;;;;;18.77;14.65;;;13.90;30.90;;;;;;5052649;28;20696;-51
2022/11/30 10:56:14;;;;;;;24.90;17.57;;;13.70;30.10;;;;;;5052890;28;20290;-50
2022/11/30 10:58:46;;;;;;;21.80;15.07;;;13.40;31.40;;;;;;5029717;28;20419;-51
2022/11/30 11:01:32;;;;;;;25.65;16.30;;;13.30;32.20;;;;;;5052973;28;20158;-51
2022/11/30 11:04:28;;;;;;;21.20;15.32;;;13.10;31.70;;;;;;5052782;28;20235;-51
2022/11/30 11:07:13;;;;;;;25.63;14.60;;;13.00;31.90;;;;;;5043747;28;20177;-51
2022/11/30 11:09:45;;;;;;;21.23;13.52;;;12.90;31.60;;;;;;5052370;28;20209;-51
2022/11/30 11:12:25;;;;;;;20.02;12.85;;;12.70;32.80;;;;;;5052629;28;20204;-51
2022/11/30 11:15:29;;;;;;;21.55;13.65;;;12.80;32.70;;;;;;5052290;28;20213;-51
2022/11/30 11:18:21;;;;;;;21.23;14.40;;;12.70;32.00;;;;;;5051915;28;20179;-50
2022/11/30 11:20:48;;;;;;;18.88;13.32;;;12.60;32.60;;;;;;5052206;28;20672;-51
2022/11/30 11:23:43;;;;;;;22.42;13.23;;;12.60;32.80;;;;;;5052351;28;20197;-50
2022/11/30 11:26:21;;;;;;;18.55;11.90;;;12.80;33.20;;;;;;5043744;28;20182;-51
2022/11/30 11:28:50;;;;;;;24.27;14.23;;;12.70;31.80;;;;;;5051986;28;20541;-51
2022/11/30 11:31:30;;;;;;;20.65;13.40;;;12.70;32.10;;;;;;5052122;28;20223;-50
2022/11/30 11:33:57;;;;;;;20.45;13.45;;;12.60;32.40;;;;;;5052020;28;20761;-51
2022/11/30 11:36:28;;;;;;;23.33;14.65;;;12.40;32.30;;;;;;5051698;28;20234;-51
2022/11/30 11:38:55;;;;;;;20.08;14.35;;;12.40;32.20;;;;;;5051959;28;20177;-51
2022/11/30 11:41:30;;;;;;;21.83;14.18;;;12.40;33.20;;;;;;5051914;28;20641;-52
2022/11/30 11:44:04;;;;;;;19.08;13.95;;;12.40;32.80;;;;;;5052270;28;20208;-51
2022/11/30 11:46:33;;;;;;;20.90;14.23;;;12.20;32.90;;;;;;5052300;28;20587;-50
2022/11/30 11:49:05;;;;;;;19.17;13.90;;;12.10;32.80;;;;;;5050584;28;20568;-51
2022/11/30 11:51:33;;;;;;;21.73;13.77;;;11.90;32.80;;;;;;5052145;28;20572;-51
2022/11/30 11:54:34;;;;;;;24.23;14.48;;;11.70;33.60;;;;;;5052150;28;20607;-50
2022/11/30 11:57:01;;;;;;;17.67;12.32;;;11.60;34.00;;;;;;5051891;28;20181;-51
2022/11/30 11:59:26;;;;;;;21.38;12.50;;;11.60;34.60;;;;;;5051533;28;20177;-51
2022/11/30 12:02:06;;;;;;;20.63;14.73;;;11.70;34.40;;;;;;5051979;28;20188;-51
2022/11/30 12:04:49;;;;;;;21.80;14.02;;;11.90;34.30;;;;;;5051595;28;20291;-52
2022/11/30 12:07:21;;;;;;;26.23;15.90;;;11.90;34.30;;;;;;5051999;28;20166;-51
2022/11/30 12:10:12;;;;;;;23.83;14.43;;;11.90;34.20;;;;;;5051312;28;20656;-51
2022/11/30 12:12:38;;;;;;;25.63;15.23;;;11.90;33.90;;;;;;5051831;28;20187;-50
2022/11/30 12:15:11;;;;;;;27.13;15.20;;;12.00;33.90;;;;;;5051507;28;20205;-51
2022/11/30 12:17:45;;;;;;;27.75;14.60;;;12.10;33.50;;;;;;5051439;28;20412;-50
2022/11/30 12:20:34;;;;;;;25.60;16.48;;;12.20;34.00;;;;;;5051576;28;20521;-51
2022/11/30 12:23:10;;;;;;;23.33;15.05;;;12.90;33.90;;;;;;5051513;28;20177;-51
2022/11/30 12:25:41;;;;;;;21.05;15.75;;;13.50;32.00;;;;;;5051736;28;20302;-51
2022/11/30 12:28:35;;;;;;;21.45;13.32;;;14.10;30.90;;;;;;5051633;28;20216;-51
2022/11/30 12:31:10;;;;;;;22.70;15.63;;;14.30;30.30;;;;;;5051839;28;20173;-51
2022/11/30 12:34:21;;;;;;;19.75;13.80;;;14.60;29.50;;;;;;5051531;28;20275;-51
2022/11/30 12:37:07;;;;;;;19.45;14.50;;;14.50;30.00;;;;;;5009213;28;20185;-51
2022/11/30 12:39:54;;;;;;;20.13;13.40;;;14.60;29.50;;;;;;5043253;28;20239;-51
2022/11/30 12:42:29;;;;;;;21.02;13.48;;;14.50;29.90;;;;;;5051636;28;20165;-51
2022/11/30 12:45:03;;;;;;;20.60;13.63;;;14.20;29.30;;;;;;5051342;28;20277;-52
2022/11/30 12:47:44;;;;;;;23.42;15.55;;;13.90;29.90;;;;;;5051423;28;20169;-51
2022/11/30 12:50:51;;;;;;;19.20;12.90;;;13.50;30.80;;;;;;5055181;28;20212;-51
2022/11/30 12:53:40;;;;;;;17.30;12.82;;;13.30;31.10;;;;;;5054796;28;20193;-50
2022/11/30 12:57:04;;;;;;;21.42;13.30;;;12.90;31.30;;;;;;5055048;28;20179;-51
2022/11/30 12:59:50;;;;;;;22.00;14.43;;;12.60;31.80;;;;;;5012626;28;20206;-51
2022/11/30 13:02:18;;;;;;;20.90;14.27;;;12.20;32.20;;;;;;5055074;28;20192;-51
2022/11/30 13:05:07;;;;;;;24.73;15.30;;;12.10;32.70;;;;;;5054874;28;20197;-49